Time;durP1;ratioP1;P1;durP2;ratioP2;P2;SDS_P1;SDS_P2;PMS_P1;PMS_P2;Temp;Humidity;BMP_temperature;BMP_pressure;BME280_temperature;BME280_humidity;BME280_pressure;Samples;Min_cycle;Max_cycle;Signal;HPM_P1;HPM_P2
2022/01/16 10:12:48;;;;;;;29.17;26.07;;;1.30;99.90;;;;;;5062856;28;20659;-75
2022/01/16 10:15:20;;;;;;;29.27;26.37;;;2.80;99.90;;;;;;5063176;28;20451;-74
2022/01/16 10:17:49;;;;;;;31.20;27.60;;;2.90;99.90;;;;;;5063162;28;20439;-74
2022/01/16 10:20:16;;;;;;;32.07;25.80;;;3.10;99.90;;;;;;5063054;28;20764;-75
2022/01/16 10:22:46;;;;;;;30.33;27.27;;;2.80;99.90;;;;;;5062915;28;20936;-74
2022/01/16 10:25:14;;;;;;;30.40;25.00;;;2.90;99.90;;;;;;5062819;28;20947;-74
2022/01/16 10:27:44;;;;;;;29.00;25.87;;;2.90;99.90;;;;;;5063194;28;20843;-73
2022/01/16 10:30:14;;;;;;;30.17;27.10;;;3.00;99.90;;;;;;5063059;28;20986;-73
2022/01/16 10:32:42;;;;;;;30.37;27.27;;;3.00;99.90;;;;;;5062873;28;20459;-74
2022/01/16 10:35:11;;;;;;;30.70;27.50;;;3.00;99.90;;;;;;5063010;28;20451;-74
2022/01/16 10:37:41;;;;;;;26.03;23.43;;;3.30;99.90;;;;;;5056148;28;20515;-74
2022/01/16 10:40:10;;;;;;;29.80;26.03;;;3.70;99.90;;;;;;5045712;28;20776;-74
2022/01/16 10:42:39;;;;;;;29.90;26.07;;;3.80;99.90;;;;;;5042844;28;20794;-74
2022/01/16 10:45:10;;;;;;;30.87;27.13;;;4.20;99.90;;;;;;5042457;28;20463;-73
2022/01/16 10:47:40;;;;;;;29.33;26.20;;;4.60;99.90;;;;;;5042777;28;20855;-73
2022/01/16 10:50:13;;;;;;;28.80;25.30;;;4.70;99.90;;;;;;5042399;28;20934;-74
2022/01/16 10:52:52;;;;;;;28.30;25.43;;;5.10;99.90;;;;;;5042828;28;20826;-75
2022/01/16 10:55:20;;;;;;;28.17;25.57;;;5.70;99.90;;;;;;5042456;28;20449;-75
2022/01/16 10:57:47;;;;;;;28.27;25.57;;;6.20;99.90;;;;;;5042243;28;20471;-74
2022/01/16 11:00:18;;;;;;;34.13;28.70;;;6.30;99.90;;;;;;5042255;28;20809;-74
2022/01/16 11:02:47;;;;;;;26.57;23.90;;;6.20;99.90;;;;;;5042045;28;20476;-74
2022/01/16 11:05:16;;;;;;;26.27;23.80;;;6.30;99.90;;;;;;5042330;28;20858;-76
2022/01/16 11:07:43;;;;;;;28.60;25.70;;;6.00;99.90;;;;;;5042284;28;20516;-75
2022/01/16 11:10:22;;;;;;;27.60;24.83;;;5.90;99.90;;;;;;5042601;28;20454;-75
2022/01/16 11:12:49;;;;;;;27.33;24.60;;;5.70;99.90;;;;;;5033451;28;20491;-75
2022/01/16 11:15:18;;;;;;;31.17;28.17;;;5.60;99.90;;;;;;5028804;28;20541;-75
2022/01/16 11:17:45;;;;;;;27.43;24.67;;;5.50;99.90;;;;;;5028831;28;20798;-75
2022/01/16 11:20:13;;;;;;;27.63;24.93;;;5.50;99.90;;;;;;5029020;28;20510;-75
2022/01/16 11:22:58;;;;;;;25.80;23.07;;;5.60;99.90;;;;;;5029235;28;20452;-74
2022/01/16 11:25:33;;;;;;;27.97;25.17;;;5.70;99.90;;;;;;5029121;28;20825;-75
2022/01/16 11:28:03;;;;;;;29.97;26.67;;;5.30;99.90;;;;;;5028699;28;20963;-75
2022/01/16 11:30:33;;;;;;;30.60;27.70;;;5.30;99.90;;;;;;5028405;28;20452;-76
2022/01/16 11:33:00;;;;;;;29.93;26.93;;;5.30;99.90;;;;;;5028119;28;20506;-75
2022/01/16 11:35:27;;;;;;;27.87;25.27;;;5.30;99.90;;;;;;5028599;28;20521;-74
2022/01/16 11:37:54;;;;;;;32.87;29.37;;;5.20;99.90;;;;;;5028701;28;20449;-74
2022/01/16 11:40:27;;;;;;;28.40;25.67;;;5.40;99.90;;;;;;5028542;28;20457;-75
2022/01/16 11:43:13;;;;;;;29.80;26.80;;;5.50;99.90;;;;;;5028754;28;20453;-75
2022/01/16 11:45:53;;;;;;;30.00;27.00;;;5.80;99.90;;;;;;5028440;28;20862;-75
2022/01/16 11:48:35;;;;;;;32.23;27.63;;;5.90;99.90;;;;;;5028489;28;20453;-75
2022/01/16 11:51:03;;;;;;;31.03;26.80;;;5.90;99.90;;;;;;5028212;28;20481;-75
2022/01/16 11:54:04;;;;;;;30.17;27.20;;;6.10;99.90;;;;;;5028221;28;20453;-75
2022/01/16 11:56:50;;;;;;;29.70;26.77;;;6.00;99.90;;;;;;5020869;28;20461;-75
2022/01/16 11:59:21;;;;;;;30.50;27.47;;;5.90;99.90;;;;;;5028138;28;20452;-76
2022/01/16 12:01:52;;;;;;;30.63;27.40;;;6.00;99.90;;;;;;5028270;28;20455;-76
2022/01/16 12:04:56;;;;;;;30.50;27.67;;;5.90;99.90;;;;;;5037645;28;20481;-76
2022/01/16 12:07:45;;;;;;;31.47;28.30;;;5.80;99.90;;;;;;5047629;28;20470;-75
2022/01/16 12:10:12;;;;;;;33.13;29.73;;;5.60;99.90;;;;;;5029928;28;20461;-76
2022/01/16 12:12:39;;;;;;;30.17;26.93;;;5.50;99.90;;;;;;5028291;28;20517;-76
2022/01/16 12:15:07;;;;;;;32.47;29.20;;;5.30;99.90;;;;;;5028059;28;20511;-76
2022/01/16 12:17:44;;;;;;;31.40;27.47;;;5.20;99.90;;;;;;5028029;28;20816;-76
2022/01/16 12:20:26;;;;;;;32.67;29.30;;;5.10;99.90;;;;;;5028302;28;20449;-75
2022/01/16 12:22:55;;;;;;;32.47;29.07;;;5.10;99.90;;;;;;5028192;28;20460;-76
2022/01/16 12:25:23;;;;;;;34.70;28.27;;;5.30;99.90;;;;;;5026930;28;20445;-75
2022/01/16 12:27:52;;;;;;;33.97;28.00;;;5.70;99.90;;;;;;5027886;28;20939;-75
2022/01/16 12:30:35;;;;;;;32.40;28.10;;;6.00;99.90;;;;;;5027915;28;20464;-75
2022/01/16 12:33:12;;;;;;;31.43;27.13;;;6.30;99.90;;;;;;5027838;28;20540;-75
2022/01/16 12:36:10;;;;;;;31.17;25.80;;;6.20;99.90;;;;;;5028032;28;20463;-76
2022/01/16 12:38:52;;;;;;;29.10;24.33;;;6.00;99.90;;;;;;5027821;28;20552;-74
2022/01/16 12:41:24;;;;;;;31.10;26.40;;;5.80;99.90;;;;;;5027624;28;20499;-76
2022/01/16 12:43:56;;;;;;;28.43;25.30;;;5.70;99.90;;;;;;5027764;28;20437;-76
2022/01/16 12:46:26;;;;;;;29.40;26.50;;;5.70;99.90;;;;;;5027582;28;20473;-75
2022/01/16 12:48:56;;;;;;;26.97;23.77;;;5.50;99.90;;;;;;5027768;28;20521;-76
2022/01/16 12:51:26;;;;;;;23.57;21.27;;;5.40;99.90;;;;;;5027920;28;20492;-76
2022/01/16 12:53:54;;;;;;;22.57;20.33;;;5.40;99.90;;;;;;5027875;28;20456;-76
2022/01/16 12:56:25;;;;;;;21.63;19.47;;;5.40;99.90;;;;;;5027390;28;21052;-76
2022/01/16 12:58:53;;;;;;;21.80;19.90;;;5.40;99.90;;;;;;5027697;28;20459;-76
2022/01/16 13:01:20;;;;;;;17.83;16.23;;;5.60;99.90;;;;;;5027390;28;20811;-76
2022/01/16 13:03:47;;;;;;;19.87;17.83;;;5.60;99.90;;;;;;5027060;28;20473;-76
2022/01/16 13:06:21;;;;;;;19.27;17.57;;;5.80;99.90;;;;;;5027102;28;20502;-75
2022/01/16 13:09:00;;;;;;;17.67;16.13;;;5.70;99.90;;;;;;5027135;28;20455;-75
2022/01/16 13:11:30;;;;;;;16.47;14.97;;;5.70;99.90;;;;;;5026980;28;20999;-75
2022/01/16 13:13:57;;;;;;;17.13;15.60;;;5.80;99.90;;;;;;5027342;28;20510;-76
2022/01/16 13:16:26;;;;;;;18.97;17.33;;;5.80;99.90;;;;;;5027676;28;20501;-76
2022/01/16 13:19:10;;;;;;;19.13;17.27;;;5.90;99.90;;;;;;5027258;28;20453;-75
2022/01/16 13:21:44;;;;;;;19.13;17.33;;;5.90;99.90;;;;;;5027202;28;20441;-75
2022/01/16 13:24:23;;;;;;;20.20;18.30;;;5.90;99.90;;;;;;5027100;28;20461;-75
2022/01/16 13:26:49;;;;;;;17.40;15.90;;;5.90;99.90;;;;;;5026906;28;20865;-75
2022/01/16 13:29:18;;;;;;;16.93;15.40;;;5.90;99.90;;;;;;5026738;28;20787;-75
2022/01/16 13:31:45;;;;;;;19.40;17.60;;;6.00;99.90;;;;;;5026837;28;20492;-75
2022/01/16 13:34:14;;;;;;;19.73;17.73;;;5.90;99.90;;;;;;5026680;28;20460;-75
2022/01/16 13:36:52;;;;;;;17.87;16.17;;;5.90;99.90;;;;;;5026731;28;20871;-75
2022/01/16 13:39:37;;;;;;;16.30;14.90;;;5.90;99.90;;;;;;5026694;28;20462;-74
2022/01/16 13:42:31;;;;;;;15.87;14.37;;;5.80;99.90;;;;;;5026640;28;20874;-75
2022/01/16 13:45:25;;;;;;;16.83;15.27;;;5.90;99.90;;;;;;5026877;28;20461;-75
2022/01/16 13:47:58;;;;;;;16.50;15.07;;;5.90;99.90;;;;;;5026902;28;20929;-75
2022/01/16 13:50:26;;;;;;;15.57;14.20;;;6.00;99.90;;;;;;5026756;28;20534;-75
2022/01/16 13:53:00;;;;;;;18.67;17.07;;;6.00;99.90;;;;;;5026793;28;20537;-76
2022/01/16 13:55:27;;;;;;;15.40;14.00;;;5.90;99.90;;;;;;5026657;28;20457;-74
2022/01/16 13:57:54;;;;;;;15.37;14.20;;;5.80;99.90;;;;;;5026781;28;20501;-75
2022/01/16 14:00:33;;;;;;;16.47;15.20;;;5.90;99.90;;;;;;5026582;28;20445;-75
2022/01/16 14:03:18;;;;;;;16.27;14.93;;;6.10;99.90;;;;;;5026226;28;20470;-74
2022/01/16 14:05:47;;;;;;;16.13;14.73;;;6.10;99.90;;;;;;5026366;28;20449;-74
2022/01/16 14:08:25;;;;;;;17.77;16.20;;;6.10;99.90;;;;;;5026271;28;20466;-76
2022/01/16 14:10:54;;;;;;;17.03;15.40;;;6.10;99.90;;;;;;5026260;28;20481;-75
2022/01/16 14:13:22;;;;;;;17.17;15.77;;;6.00;99.90;;;;;;5026159;28;20492;-74
2022/01/16 14:16:07;;;;;;;17.77;16.10;;;6.10;99.90;;;;;;5026137;28;20449;-74
2022/01/16 14:24:06;;;;;;;17.00;15.50;;;6.10;99.90;;;;;;5026148;28;20432;-76
2022/01/16 14:26:33;;;;;;;18.00;16.40;;;6.20;99.90;;;;;;5026206;28;20460;-75
2022/01/16 14:28:59;;;;;;;17.90;16.40;;;6.00;99.90;;;;;;5026059;28;20456;-75
2022/01/16 14:31:26;;;;;;;17.70;16.00;;;6.00;99.90;;;;;;5026199;28;20456;-75
2022/01/16 14:33:53;;;;;;;18.97;17.13;;;6.00;99.90;;;;;;5026186;28;20451;-75
2022/01/16 14:36:19;;;;;;;18.40;16.80;;;5.90;99.90;;;;;;5025915;28;20843;-74
2022/01/16 14:38:46;;;;;;;18.00;16.40;;;6.00;99.90;;;;;;5026030;28;20868;-75
2022/01/16 14:41:16;;;;;;;19.87;17.93;;;6.00;99.90;;;;;;5025926;28;20818;-75
2022/01/16 14:43:54;;;;;;;19.00;17.30;;;6.00;99.90;;;;;;5026189;28;20454;-75
2022/01/16 14:46:21;;;;;;;18.47;16.90;;;6.00;99.90;;;;;;5026079;28;20457;-75
2022/01/16 14:48:50;;;;;;;18.50;16.90;;;6.10;99.90;;;;;;5028594;28;21043;-75
2022/01/16 14:51:17;;;;;;;20.17;18.07;;;6.20;99.90;;;;;;5028979;28;20491;-74
2022/01/16 14:53:43;;;;;;;18.73;17.10;;;6.20;99.90;;;;;;5029091;28;20804;-76
2022/01/16 14:56:12;;;;;;;17.97;16.30;;;6.40;99.90;;;;;;5029531;28;20454;-74
2022/01/16 14:58:40;;;;;;;17.90;16.60;;;6.50;99.90;;;;;;5029452;28;20536;-75
2022/01/16 15:01:08;;;;;;;17.70;16.20;;;6.40;99.90;;;;;;5029277;28;20477;-75
2022/01/16 15:03:35;;;;;;;18.27;16.53;;;6.40;99.90;;;;;;5028868;28;20867;-75
2022/01/16 15:06:06;;;;;;;19.97;18.30;;;6.30;99.90;;;;;;5028982;28;20466;-76
2022/01/16 15:08:34;;;;;;;17.43;16.10;;;6.30;99.90;;;;;;5028989;28;20459;-75
2022/01/16 15:11:00;;;;;;;17.03;15.53;;;6.20;99.90;;;;;;5028623;28;21230;-75
2022/01/16 15:13:27;;;;;;;18.43;16.73;;;6.20;99.90;;;;;;5028841;28;20488;-77
2022/01/16 15:15:55;;;;;;;17.50;16.00;;;6.20;99.90;;;;;;5029224;28;20450;-76
2022/01/16 15:18:22;;;;;;;18.27;16.60;;;6.10;99.90;;;;;;5028883;28;20510;-74
2022/01/16 15:20:50;;;;;;;17.47;16.00;;;6.00;99.90;;;;;;5028721;28;20456;-75
2022/01/16 15:23:17;;;;;;;17.40;15.90;;;6.10;99.90;;;;;;5028709;28;20737;-76
2022/01/16 15:25:44;;;;;;;17.40;15.90;;;5.90;99.90;;;;;;5028724;28;20453;-75
2022/01/16 15:28:11;;;;;;;17.10;15.90;;;5.80;99.90;;;;;;5029179;28;20534;-75
2022/01/16 15:30:38;;;;;;;19.40;17.67;;;5.60;99.90;;;;;;5030017;28;20454;-75
2022/01/16 15:33:06;;;;;;;17.50;16.07;;;5.70;99.90;;;;;;5028574;28;20904;-76
2022/01/16 15:35:37;;;;;;;17.03;15.60;;;5.60;99.90;;;;;;5028548;28;20449;-75
2022/01/16 15:38:04;;;;;;;19.50;17.77;;;5.60;99.90;;;;;;5028727;28;20459;-75
2022/01/16 15:40:35;;;;;;;16.80;15.30;;;5.40;99.90;;;;;;5028529;28;20719;-76
2022/01/16 15:43:03;;;;;;;18.37;16.67;;;5.40;99.90;;;;;;5030476;28;20705;-75
2022/01/16 15:45:30;;;;;;;18.53;17.07;;;5.40;99.90;;;;;;5046258;28;20449;-75
2022/01/16 15:47:57;;;;;;;17.93;16.40;;;5.30;99.90;;;;;;5048572;28;20452;-75
2022/01/16 15:50:25;;;;;;;18.10;16.60;;;5.30;99.90;;;;;;5048693;28;21003;-75
2022/01/16 15:52:53;;;;;;;17.60;16.30;;;5.30;99.90;;;;;;5048547;28;20485;-74
2022/01/16 15:55:22;;;;;;;15.40;14.40;;;5.30;99.90;;;;;;5048287;28;20452;-75
2022/01/16 15:57:50;;;;;;;22.43;14.10;;;5.20;99.90;;;;;;5048137;28;20453;-75
2022/01/16 16:00:18;;;;;;;17.60;16.13;;;5.30;99.90;;;;;;5060436;28;20678;-76
2022/01/16 16:02:45;;;;;;;16.40;15.10;;;5.40;99.90;;;;;;5050035;28;20464;-75
2022/01/16 16:05:12;;;;;;;15.83;14.47;;;5.30;99.90;;;;;;5048351;28;20539;-75
2022/01/16 16:07:40;;;;;;;17.10;15.80;;;5.40;99.90;;;;;;5048294;28;20888;-75
2022/01/16 16:10:08;;;;;;;18.73;17.03;;;5.50;99.90;;;;;;5048247;28;20452;-76
2022/01/16 16:12:35;;;;;;;17.43;15.83;;;5.50;99.90;;;;;;5047733;28;20496;-75
2022/01/16 16:15:02;;;;;;;16.30;14.90;;;5.30;99.90;;;;;;5048076;28;20627;-76
2022/01/16 16:17:29;;;;;;;16.00;14.73;;;5.30;99.90;;;;;;5047944;28;20500;-75
2022/01/16 16:19:56;;;;;;;14.63;13.40;;;5.30;99.90;;;;;;5048138;28;20513;-76
2022/01/16 16:22:24;;;;;;;15.50;14.37;;;5.40;99.90;;;;;;5048438;28;20492;-75
2022/01/16 16:24:54;;;;;;;15.33;14.23;;;5.40;99.90;;;;;;5048010;28;20445;-76
2022/01/16 16:27:21;;;;;;;17.67;15.83;;;5.40;99.90;;;;;;5047938;28;20447;-75
2022/01/16 16:29:49;;;;;;;15.17;13.97;;;5.30;99.90;;;;;;5047821;28;20730;-74
2022/01/16 16:32:17;;;;;;;17.70;16.40;;;5.30;99.90;;;;;;5047596;28;20484;-75
2022/01/16 16:34:44;;;;;;;16.63;15.00;;;5.30;99.90;;;;;;5047576;28;20486;-75
2022/01/16 16:37:12;;;;;;;15.87;14.73;;;5.40;99.90;;;;;;5047782;28;20452;-75
2022/01/16 16:39:39;;;;;;;16.23;15.13;;;5.40;99.90;;;;;;5047849;28;20448;-75
2022/01/16 16:42:10;;;;;;;16.03;14.93;;;5.50;99.90;;;;;;5047548;28;20448;-75
2022/01/16 16:44:38;;;;;;;16.83;15.10;;;5.50;99.90;;;;;;5047674;28;20452;-76
2022/01/16 16:47:05;;;;;;;17.07;15.70;;;5.50;99.90;;;;;;5047308;28;20465;-75
2022/01/16 16:49:33;;;;;;;17.27;15.87;;;5.50;99.90;;;;;;5047253;28;20452;-75
2022/01/16 16:52:01;;;;;;;18.27;16.87;;;5.60;99.90;;;;;;5047261;28;20454;-75
2022/01/16 16:54:28;;;;;;;16.90;15.37;;;5.60;99.90;;;;;;5047324;28;20793;-75
2022/01/16 16:56:54;;;;;;;17.07;15.60;;;5.60;99.90;;;;;;5047799;28;20445;-74
2022/01/16 16:59:22;;;;;;;15.90;14.70;;;5.70;99.90;;;;;;5047492;28;20456;-74
2022/01/16 17:01:49;;;;;;;16.53;15.30;;;5.70;99.90;;;;;;5047239;28;20854;-75
2022/01/16 17:04:17;;;;;;;18.47;16.70;;;5.70;99.90;;;;;;5047173;28;20452;-75
2022/01/16 17:06:44;;;;;;;17.80;16.30;;;5.70;99.90;;;;;;5047078;28;20445;-75
2022/01/16 17:09:11;;;;;;;19.43;17.53;;;5.60;99.90;;;;;;5047352;28;20452;-76
2022/01/16 17:11:37;;;;;;;18.50;16.90;;;5.60;99.90;;;;;;5046626;28;21028;-76
2022/01/16 17:14:05;;;;;;;17.33;15.83;;;5.50;99.90;;;;;;5047007;28;20488;-75
2022/01/16 17:16:33;;;;;;;19.97;18.27;;;5.40;99.90;;;;;;5046952;28;20454;-76
2022/01/16 17:19:05;;;;;;;19.40;17.70;;;5.50;99.90;;;;;;5046959;28;20456;-74
2022/01/16 17:21:32;;;;;;;17.93;16.20;;;5.50;99.90;;;;;;5046893;28;21083;-76
2022/01/16 17:23:59;;;;;;;20.03;18.23;;;5.50;99.90;;;;;;5046651;28;20457;-74
2022/01/16 17:26:26;;;;;;;21.20;19.40;;;5.50;99.90;;;;;;5046958;28;20482;-73
2022/01/16 17:28:52;;;;;;;22.00;20.00;;;5.30;99.90;;;;;;5047094;28;20923;-74
2022/01/16 17:31:19;;;;;;;22.40;20.40;;;5.30;99.90;;;;;;5046960;28;20447;-75
2022/01/16 17:33:47;;;;;;;24.00;21.70;;;5.10;99.90;;;;;;5046874;28;20927;-75
2022/01/16 17:36:14;;;;;;;24.00;21.63;;;5.00;99.90;;;;;;5046711;28;20456;-74
2022/01/16 17:38:41;;;;;;;26.33;23.93;;;4.90;99.90;;;;;;5046899;28;20448;-74
2022/01/16 17:41:08;;;;;;;27.10;24.50;;;4.80;99.90;;;;;;5046894;28;20513;-74
2022/01/16 17:43:35;;;;;;;34.27;28.07;;;4.70;99.90;;;;;;5046688;28;20452;-74
2022/01/16 17:46:02;;;;;;;31.80;28.47;;;4.60;99.90;;;;;;5046507;28;20777;-74
2022/01/16 17:48:28;;;;;;;35.23;31.43;;;4.50;99.90;;;;;;5046676;28;20471;-74
2022/01/16 17:50:56;;;;;;;32.63;29.10;;;4.30;99.90;;;;;;5046823;28;20524;-75
2022/01/16 17:53:23;;;;;;;29.43;26.50;;;4.30;99.90;;;;;;5046745;28;20483;-75
2022/01/16 17:55:50;;;;;;;31.20;28.00;;;4.30;99.90;;;;;;5046330;28;20450;-76
2022/01/16 17:58:19;;;;;;;30.83;27.73;;;4.30;99.90;;;;;;5046708;28;20845;-73
